Terminal Aerodrome Forecast
Issued by NWS Portland, ME

Home | Current Version | Previous Version | Text Only | Print | Product List | Glossary On
Versions: 1 2 3 4 5 6 7 8 9 10 11 12 13 14 15 16 17 18 19 20 21 22
000
FTUS41 KGYX 301257 AAB
TAFPWM
TAF AMD
KPWM 301257Z 3013/3112 17005KT P6SM SCT006
     FM301400 19010KT P6SM FEW250
     FM301600 20016G22KT P6SM BKN250
     FM310400 20011KT 6SM BR OVC050
     FM310500 20010G17KT 3SM BR VCTS OVC025CB=

USA.gov is the U.S. government's official web portal to all federal, state and local government web resources and services.